Terminal Aerodrome Forecast
Issued by NWS

Home | Current Version | Previous Version | Text Only | Print | Product List | Glossary On
Versions: 1 2 3 4 5 6 7 8 9 10 11 12 13 14
000
FTUS42 TJSJ 210520
TAFISX
TAF
TISX 210520Z 2106/2206 06007KT P6SM FEW025 FEW050
     FM211400 10012G18KT P6SM FEW035
     FM212300 06006KT P6SM FEW030
      AMD NOT SKED TIL 211100=

USA.gov is the U.S. government's official web portal to all federal, state and local government web resources and services.